createdAt,value
2022-12-16T00:01:24.881Z,30.80
2022-12-16T00:03:55.243Z,29.37
2022-12-16T00:06:24.724Z,31.23
2022-12-16T00:08:55.033Z,31.57
2022-12-16T00:11:23.129Z,29.80
2022-12-16T00:13:51.212Z,30.70
2022-12-16T00:16:22.175Z,30.90
2022-12-16T00:18:51.812Z,29.17
2022-12-16T00:21:20.665Z,27.93
2022-12-16T00:23:49.111Z,29.80
2022-12-16T00:26:18.583Z,28.07
2022-12-16T00:28:46.555Z,29.90
2022-12-16T00:31:14.700Z,29.27
2022-12-16T00:33:42.810Z,28.77
2022-12-16T00:36:11.429Z,28.93
2022-12-16T00:38:39.584Z,27.80
2022-12-16T00:41:08.207Z,29.20
2022-12-16T00:43:37.557Z,27.77
2022-12-16T00:46:05.709Z,29.07
2022-12-16T00:48:33.727Z,29.10
2022-12-16T00:51:01.773Z,29.93
2022-12-16T00:53:29.870Z,29.53
2022-12-16T00:56:04.301Z,28.53
2022-12-16T00:58:32.271Z,28.70
2022-12-16T01:01:01.804Z,30.80
2022-12-16T01:03:30.174Z,27.83
2022-12-16T01:05:58.262Z,30.57
2022-12-16T01:08:26.375Z,30.00
2022-12-16T01:10:55.708Z,30.13
2022-12-16T01:13:25.478Z,30.37
2022-12-16T01:15:53.849Z,32.07
2022-12-16T01:18:23.266Z,30.13
2022-12-16T01:20:51.425Z,29.70
2022-12-16T01:23:20.019Z,30.80
2022-12-16T01:25:53.228Z,29.30
2022-12-16T01:28:21.747Z,30.43
2022-12-16T01:30:49.754Z,29.70
2022-12-16T01:33:18.458Z,29.17
2022-12-16T01:35:56.309Z,30.63
2022-12-16T01:38:24.793Z,29.70
2022-12-16T01:40:52.812Z,29.07
2022-12-16T01:43:26.573Z,31.57
2022-12-16T01:45:58.565Z,31.60
2022-12-16T01:48:35.517Z,32.87
2022-12-16T01:51:09.200Z,32.77
2022-12-16T01:53:39.764Z,33.53
2022-12-16T01:56:08.516Z,32.37
2022-12-16T01:58:39.711Z,31.77
2022-12-16T02:01:09.095Z,31.87
2022-12-16T02:03:38.426Z,32.27
2022-12-16T02:06:08.669Z,32.60
2022-12-16T02:08:36.894Z,31.03
2022-12-16T02:11:29.413Z,33.13
2022-12-16T02:14:12.276Z,32.67
2022-12-16T02:16:47.951Z,32.07
2022-12-16T02:19:36.380Z,32.37
2022-12-16T02:22:21.767Z,31.70
2022-12-16T02:25:26.007Z,32.87
2022-12-16T02:28:02.195Z,31.40
2022-12-16T02:31:07.532Z,30.97
2022-12-16T02:33:58.954Z,30.47
2022-12-16T02:36:41.835Z,31.10
2022-12-16T02:39:15.449Z,30.30
2022-12-16T02:41:48.397Z,31.27
2022-12-16T02:44:18.004Z,30.03
2022-12-16T02:46:53.975Z,30.17
2022-12-16T02:49:49.909Z,31.83
2022-12-16T02:52:21.363Z,31.30
2022-12-16T02:54:51.049Z,29.27
2022-12-16T02:57:37.550Z,28.77
2022-12-16T03:00:07.822Z,29.33
2022-12-16T03:02:46.067Z,29.50
2022-12-16T03:05:19.669Z,30.70
2022-12-16T03:07:50.890Z,31.07
2022-12-16T03:10:22.411Z,32.20
2022-12-16T03:12:50.508Z,29.07
2022-12-16T03:15:23.005Z,30.93
2022-12-16T03:17:55.102Z,29.93
2022-12-16T03:20:27.645Z,30.50
2022-12-16T03:22:58.443Z,30.27
2022-12-16T03:25:28.154Z,30.73
2022-12-16T03:28:04.252Z,29.50
2022-12-16T03:30:37.322Z,31.97
2022-12-16T03:33:11.732Z,31.03
2022-12-16T03:35:44.330Z,31.63
2022-12-16T03:38:14.333Z,36.07
2022-12-16T03:40:44.310Z,39.83
2022-12-16T03:43:14.912Z,36.20
2022-12-16T03:45:46.768Z,33.47
2022-12-16T03:48:17.380Z,33.23
2022-12-16T03:50:45.358Z,32.33
2022-12-16T03:53:13.329Z,30.37
2022-12-16T03:55:41.265Z,32.63
2022-12-16T03:58:09.418Z,29.70
2022-12-16T04:00:37.651Z,31.60
2022-12-16T04:03:05.827Z,31.50
2022-12-16T04:05:35.339Z,30.00
2022-12-16T04:08:03.320Z,31.57
2022-12-16T04:10:48.775Z,29.53
2022-12-16T04:13:34.572Z,30.53
2022-12-16T04:16:20.783Z,30.57
2022-12-16T04:19:07.205Z,30.07
2022-12-16T04:21:55.615Z,30.20
2022-12-16T04:24:28.282Z,27.50
2022-12-16T04:27:15.798Z,28.00
2022-12-16T04:29:58.346Z,30.40
2022-12-16T04:32:26.727Z,29.17
2022-12-16T04:34:54.060Z,29.23
2022-12-16T04:37:41.061Z,28.37
2022-12-16T04:40:27.569Z,28.87
2022-12-16T04:43:09.463Z,29.37
2022-12-16T04:45:55.434Z,28.13
2022-12-16T04:48:40.932Z,29.50
2022-12-16T04:51:26.675Z,30.50
2022-12-16T04:54:13.685Z,30.40
2022-12-16T04:56:58.875Z,30.97
2022-12-16T04:59:44.050Z,30.87
2022-12-16T05:02:37.955Z,30.67
2022-12-16T05:05:24.377Z,29.77
2022-12-16T05:08:09.724Z,29.47
2022-12-16T05:10:56.762Z,30.63
2022-12-16T05:13:41.990Z,29.50
2022-12-16T05:16:27.387Z,30.13
2022-12-16T05:19:12.768Z,27.50
2022-12-16T05:22:06.330Z,28.03
2022-12-16T05:24:53.188Z,28.47
2022-12-16T05:27:40.381Z,28.10
2022-12-16T05:30:33.346Z,27.93
2022-12-16T05:33:19.261Z,29.77
2022-12-16T05:36:04.777Z,28.77
2022-12-16T05:38:50.405Z,28.90
2022-12-16T05:41:35.943Z,29.93
2022-12-16T05:44:23.085Z,29.73
2022-12-16T05:47:08.843Z,29.70
2022-12-16T05:49:53.406Z,29.23
2022-12-16T05:52:39.432Z,28.63
2022-12-16T05:55:29.139Z,29.97
2022-12-16T05:58:19.092Z,30.27
2022-12-16T06:01:05.934Z,27.90
2022-12-16T06:03:51.485Z,28.63
2022-12-16T06:06:37.088Z,28.27
2022-12-16T06:09:22.976Z,27.20
2022-12-16T06:12:08.229Z,28.13
2022-12-16T06:14:53.522Z,27.00
2022-12-16T06:17:41.343Z,27.23
2022-12-16T06:20:27.484Z,28.90
2022-12-16T06:23:13.525Z,29.37
2022-12-16T06:25:59.828Z,28.97
2022-12-16T06:28:46.252Z,29.93
2022-12-16T06:31:31.818Z,28.63
2022-12-16T06:34:18.967Z,28.90
2022-12-16T06:37:06.975Z,28.90
2022-12-16T06:39:53.235Z,30.23
2022-12-16T06:42:38.865Z,28.23
2022-12-16T06:45:27.875Z,27.40
2022-12-16T06:48:15.406Z,28.90
2022-12-16T06:51:02.112Z,28.90
2022-12-16T06:53:47.527Z,32.13
2022-12-16T06:56:33.111Z,30.67
2022-12-16T06:59:18.652Z,30.53
2022-12-16T07:02:04.481Z,30.00
2022-12-16T07:04:50.233Z,30.37
2022-12-16T07:07:37.230Z,31.97
2022-12-16T07:10:23.075Z,28.70
2022-12-16T07:13:17.118Z,31.37
2022-12-16T07:16:02.357Z,31.63
2022-12-16T07:18:47.614Z,29.17
2022-12-16T07:21:33.010Z,31.27
2022-12-16T07:24:19.663Z,32.13
2022-12-16T07:27:05.040Z,30.20
2022-12-16T07:29:55.810Z,32.27
2022-12-16T07:32:41.371Z,32.67
2022-12-16T07:35:35.345Z,31.40
2022-12-16T07:38:20.550Z,29.83
2022-12-16T07:41:08.254Z,32.23
2022-12-16T07:43:53.700Z,31.70
2022-12-16T07:46:39.410Z,31.93
2022-12-16T07:49:25.068Z,31.07
2022-12-16T07:52:10.911Z,31.30
2022-12-16T07:54:56.619Z,31.30
2022-12-16T07:57:43.166Z,30.23
2022-12-16T08:00:29.368Z,30.57
2022-12-16T08:03:14.918Z,32.00
2022-12-16T08:06:00.646Z,31.13
2022-12-16T08:08:46.065Z,30.87
2022-12-16T08:11:31.646Z,31.47
2022-12-16T08:14:18.773Z,31.73
2022-12-16T08:17:04.341Z,33.20
2022-12-16T08:19:49.755Z,31.27
2022-12-16T08:22:35.585Z,31.67
2022-12-16T08:25:20.867Z,32.80
2022-12-16T08:28:11.886Z,32.80
2022-12-16T08:30:59.346Z,32.00
2022-12-16T08:33:44.662Z,32.27
2022-12-16T08:36:30.344Z,36.13
2022-12-16T08:39:16.039Z,32.03
2022-12-16T08:42:01.711Z,33.08
2022-12-16T08:44:47.316Z,30.70
2022-12-16T08:47:34.846Z,29.80
2022-12-16T08:50:20.355Z,30.87
2022-12-16T08:53:05.924Z,29.97
2022-12-16T08:55:51.260Z,29.30
2022-12-16T08:58:41.147Z,31.17
2022-12-16T09:01:26.940Z,33.50
2022-12-16T09:04:14.132Z,33.77
2022-12-16T09:06:59.545Z,33.93
2022-12-16T09:09:45.023Z,32.77
2022-12-16T09:12:30.743Z,34.20
2022-12-16T09:15:16.295Z,36.90
2022-12-16T09:18:02.014Z,33.53
2022-12-16T09:20:48.637Z,33.80
2022-12-16T09:23:34.724Z,32.27
2022-12-16T09:26:25.848Z,32.00
2022-12-16T09:29:11.432Z,32.03
2022-12-16T09:31:57.135Z,29.97
2022-12-16T09:34:42.659Z,31.33
2022-12-16T09:37:29.814Z,29.67
2022-12-16T09:40:15.439Z,30.33
2022-12-16T09:43:07.905Z,30.30
2022-12-16T09:46:03.027Z,31.27
2022-12-16T09:48:57.996Z,32.50
2022-12-16T09:51:44.592Z,32.20
2022-12-16T09:54:35.758Z,33.67
2022-12-16T09:57:23.140Z,30.23
2022-12-16T10:00:15.911Z,33.77
2022-12-16T10:03:07.036Z,33.57
2022-12-16T10:06:02.327Z,31.93
2022-12-16T10:08:55.360Z,32.40
2022-12-16T10:11:57.096Z,35.33
2022-12-16T10:14:49.189Z,31.80
2022-12-16T10:17:41.303Z,33.50
2022-12-16T10:20:33.996Z,32.43
2022-12-16T10:23:27.339Z,32.43
2022-12-16T10:26:16.487Z,34.00
2022-12-16T10:29:06.195Z,34.93
2022-12-16T10:31:52.770Z,35.33
2022-12-16T10:34:42.484Z,39.97
2022-12-16T10:37:30.245Z,38.73
2022-12-16T10:40:19.030Z,39.47
2022-12-16T10:43:22.580Z,38.17
2022-12-16T10:46:12.267Z,38.70
2022-12-16T10:48:58.247Z,38.67
2022-12-16T10:51:47.417Z,37.13
2022-12-16T10:54:49.269Z,35.53
2022-12-16T10:57:46.085Z,38.30
2022-12-16T11:00:34.498Z,38.37
2022-12-16T11:03:41.426Z,39.87
2022-12-16T11:06:28.356Z,42.93
2022-12-16T11:09:14.361Z,40.67
2022-12-16T11:11:59.714Z,36.40
2022-12-16T11:15:05.785Z,43.37
2022-12-16T11:17:53.748Z,41.27
2022-12-16T11:20:44.616Z,40.53
2022-12-16T11:23:36.460Z,44.53
2022-12-16T11:26:33.121Z,40.83
2022-12-16T11:29:28.482Z,42.47
2022-12-16T11:32:19.525Z,44.37
2022-12-16T11:35:10.473Z,44.33
2022-12-16T11:37:59.546Z,44.00
2022-12-16T11:40:46.621Z,47.57
2022-12-16T11:43:35.285Z,49.03
2022-12-16T11:46:25.747Z,43.60
2022-12-16T11:49:21.941Z,41.93
2022-12-16T11:52:35.267Z,42.33
2022-12-16T11:55:41.687Z,43.87
2022-12-16T11:58:38.798Z,42.40
2022-12-16T12:01:32.220Z,50.90
2022-12-16T12:04:17.679Z,44.87
2022-12-16T12:07:25.406Z,42.90
2022-12-16T12:10:28.579Z,46.13
2022-12-16T12:13:19.334Z,51.40
2022-12-16T12:16:14.361Z,50.27
2022-12-16T12:19:20.251Z,45.23
2022-12-16T12:22:11.217Z,51.80
2022-12-16T12:25:04.318Z,49.57
2022-12-16T12:27:56.433Z,45.10
2022-12-16T12:30:44.023Z,45.63
2022-12-16T12:33:43.613Z,45.57
2022-12-16T12:36:38.249Z,43.83
2022-12-16T12:39:37.485Z,39.60
2022-12-16T12:42:36.187Z,40.10
2022-12-16T12:45:42.318Z,46.77
2022-12-16T12:48:34.133Z,42.60
2022-12-16T12:51:51.495Z,42.50
2022-12-16T12:54:48.102Z,45.43
2022-12-16T12:57:36.305Z,43.13
2022-12-16T13:00:24.031Z,45.83
2022-12-16T13:03:18.703Z,46.00
2022-12-16T13:06:08.796Z,44.57
2022-12-16T13:09:15.454Z,51.40
2022-12-16T13:12:34.334Z,46.63
2022-12-16T13:15:24.296Z,47.37
2022-12-16T13:18:48.902Z,45.37
2022-12-16T13:22:04.352Z,47.17
2022-12-16T13:24:56.976Z,45.40
2022-12-16T13:27:43.196Z,47.97
2022-12-16T13:30:41.355Z,46.97
2022-12-16T13:33:40.739Z,46.00
2022-12-16T13:36:28.030Z,49.43
2022-12-16T13:39:16.521Z,46.37
2022-12-16T13:42:16.441Z,48.50
2022-12-16T13:45:18.461Z,53.83
2022-12-16T13:48:23.987Z,52.27
2022-12-16T13:51:18.439Z,53.40
2022-12-16T13:54:10.070Z,52.23
2022-12-16T13:57:00.906Z,51.00
2022-12-16T13:59:51.290Z,54.27
2022-12-16T14:02:49.024Z,58.43
2022-12-16T14:05:40.617Z,57.53
2022-12-16T14:08:33.185Z,55.60
2022-12-16T14:11:21.625Z,53.73
2022-12-16T14:14:17.301Z,54.77
2022-12-16T14:17:14.518Z,56.97
2022-12-16T14:20:12.431Z,57.30
2022-12-16T14:23:09.371Z,57.47
2022-12-16T14:26:04.249Z,59.30
2022-12-16T14:28:53.426Z,62.03
2022-12-16T14:31:47.613Z,62.23
2022-12-16T14:34:39.836Z,59.97
2022-12-16T14:37:31.452Z,57.43
2022-12-16T14:40:16.992Z,57.17
2022-12-16T14:43:02.877Z,57.43
2022-12-16T14:45:51.478Z,56.40
2022-12-16T14:48:49.929Z,66.50
2022-12-16T14:51:46.760Z,64.17
2022-12-16T14:54:41.677Z,60.87
2022-12-16T14:57:33.351Z,57.00
2022-12-16T15:00:21.258Z,61.20
2022-12-16T15:03:09.869Z,60.93
2022-12-16T15:05:58.399Z,64.17
2022-12-16T15:08:45.483Z,63.13
2022-12-16T15:11:34.021Z,68.23
2022-12-16T15:14:21.009Z,66.03
2022-12-16T15:17:08.979Z,59.20
2022-12-16T15:20:03.886Z,63.27
2022-12-16T15:22:51.309Z,58.70
2022-12-16T15:25:39.703Z,60.20
2022-12-16T15:28:42.166Z,58.63
2022-12-16T15:31:42.071Z,58.10
2022-12-16T15:34:51.339Z,57.53
2022-12-16T15:37:43.224Z,56.87
2022-12-16T15:40:42.064Z,56.57
2022-12-16T15:43:44.702Z,58.40
2022-12-16T15:46:38.468Z,66.17
2022-12-16T15:49:25.947Z,57.97
2022-12-16T15:52:26.098Z,55.93
2022-12-16T15:55:13.188Z,57.23
2022-12-16T15:58:14.118Z,55.93
2022-12-16T16:00:59.600Z,55.20
2022-12-16T16:03:47.638Z,57.83
2022-12-16T16:06:36.058Z,56.47
2022-12-16T16:09:31.819Z,59.50
2022-12-16T16:12:17.229Z,59.33
2022-12-16T16:15:03.931Z,56.43
2022-12-16T16:17:49.754Z,54.80
2022-12-16T16:20:36.640Z,56.83
2022-12-16T16:23:22.581Z,55.07
2022-12-16T16:26:08.452Z,54.80
2022-12-16T16:28:53.877Z,57.83
2022-12-16T16:31:40.867Z,64.90
2022-12-16T16:34:26.462Z,57.53
2022-12-16T16:37:13.485Z,57.60
2022-12-16T16:39:59.644Z,57.47
2022-12-16T16:42:45.675Z,56.23
2022-12-16T16:45:31.810Z,57.07
2022-12-16T16:48:28.081Z,62.07
2022-12-16T16:51:14.632Z,58.43
2022-12-16T16:54:00.135Z,65.87
2022-12-16T16:56:47.503Z,61.43
2022-12-16T16:59:33.214Z,64.00
2022-12-16T17:02:18.931Z,59.27
2022-12-16T17:05:05.976Z,57.77
2022-12-16T17:07:53.930Z,55.37
2022-12-16T17:10:39.836Z,58.03
2022-12-16T17:13:27.502Z,57.63
2022-12-16T17:16:13.141Z,55.53
2022-12-16T17:18:58.638Z,61.97
2022-12-16T17:21:45.341Z,60.27
2022-12-16T17:24:30.825Z,54.37
2022-12-16T17:27:16.440Z,52.97
2022-12-16T17:30:02.270Z,51.53
2022-12-16T17:32:48.015Z,57.67
2022-12-16T17:35:33.612Z,55.10
2022-12-16T17:38:20.347Z,55.67
2022-12-16T17:41:10.523Z,56.93
2022-12-16T17:43:56.120Z,57.90
2022-12-16T17:46:45.725Z,59.90
2022-12-16T17:49:31.162Z,58.03
2022-12-16T17:52:16.441Z,60.73
2022-12-16T17:55:03.327Z,55.47
2022-12-16T17:57:49.939Z,55.90
2022-12-16T18:00:36.308Z,55.00
2022-12-16T18:03:22.222Z,52.63
2022-12-16T18:06:14.141Z,51.23
2022-12-16T18:08:59.802Z,54.00
2022-12-16T18:11:46.731Z,50.27
2022-12-16T18:14:32.447Z,49.87
2022-12-16T18:17:17.985Z,50.03
2022-12-16T18:20:03.587Z,50.00
2022-12-16T18:22:51.543Z,53.53
2022-12-16T18:25:36.952Z,49.83
2022-12-16T18:28:23.633Z,52.50
2022-12-16T18:31:09.355Z,47.23
2022-12-16T18:33:55.129Z,50.77
2022-12-16T18:36:40.339Z,50.63
2022-12-16T18:39:25.765Z,54.90
2022-12-16T18:42:11.316Z,51.77
2022-12-16T18:45:01.237Z,49.87
2022-12-16T18:47:47.422Z,58.90
2022-12-16T18:50:37.720Z,56.00
2022-12-16T18:53:24.404Z,49.70
2022-12-16T18:56:18.420Z,51.43
2022-12-16T18:59:04.150Z,51.50
2022-12-16T19:01:51.388Z,50.43
2022-12-16T19:04:36.756Z,49.17
2022-12-16T19:07:22.290Z,49.90
2022-12-16T19:10:07.753Z,50.73
2022-12-16T19:12:53.446Z,55.47
2022-12-16T19:15:41.533Z,49.70
2022-12-16T19:18:29.848Z,49.50
2022-12-16T19:21:16.262Z,57.50
2022-12-16T19:27:17.331Z,58.67
2022-12-16T19:30:03.046Z,54.57
2022-12-16T19:32:48.350Z,55.67
2022-12-16T19:35:35.110Z,50.87
2022-12-16T19:38:20.787Z,48.93
2022-12-16T19:41:10.288Z,48.87
2022-12-16T19:44:01.739Z,47.40
2022-12-16T19:46:51.588Z,49.40
2022-12-16T19:49:42.446Z,51.50
2022-12-16T19:52:31.060Z,48.90
2022-12-16T19:55:18.756Z,44.83
2022-12-16T19:58:04.416Z,49.73
2022-12-16T20:00:49.725Z,47.90
2022-12-16T20:03:36.281Z,49.43
2022-12-16T20:06:24.352Z,50.30
2022-12-16T20:09:12.206Z,52.70
2022-12-16T20:11:58.301Z,48.53
2022-12-16T20:14:49.274Z,48.67
2022-12-16T20:17:34.896Z,49.90
2022-12-16T20:20:20.443Z,48.43
2022-12-16T20:23:05.852Z,50.60
2022-12-16T20:25:52.516Z,49.67
2022-12-16T20:28:41.581Z,48.47
2022-12-16T20:31:27.218Z,48.53
2022-12-16T20:34:13.115Z,49.73
2022-12-16T20:36:58.875Z,50.10
2022-12-16T20:42:51.381Z,54.50
2022-12-16T20:45:39.230Z,52.67
2022-12-16T20:48:24.926Z,59.57
2022-12-16T20:51:13.960Z,60.70
2022-12-16T20:53:59.786Z,64.73
2022-12-16T20:56:45.543Z,61.53
2022-12-16T20:59:32.344Z,63.57
2022-12-16T21:02:29.051Z,64.90
2022-12-16T21:05:15.091Z,58.80
2022-12-16T21:08:00.353Z,55.70
2022-12-16T21:10:46.197Z,54.80
2022-12-16T21:13:33.919Z,51.33
2022-12-16T21:16:23.833Z,48.40
2022-12-16T21:19:09.499Z,49.17
2022-12-16T21:21:55.019Z,46.00
2022-12-16T21:24:42.320Z,47.03
2022-12-16T21:27:27.951Z,50.87
2022-12-16T21:30:15.580Z,50.93
2022-12-16T21:33:02.350Z,48.43
2022-12-16T21:35:47.883Z,47.53
2022-12-16T21:38:33.474Z,47.20
2022-12-16T21:41:19.070Z,46.30
2022-12-16T21:44:04.686Z,45.97
2022-12-16T21:46:50.129Z,45.63
2022-12-16T21:49:36.874Z,45.37
2022-12-16T21:52:27.929Z,46.80
2022-12-16T21:55:13.306Z,46.50
2022-12-16T21:58:03.343Z,46.70
2022-12-16T22:00:50.304Z,46.03
2022-12-16T22:03:39.517Z,49.33
2022-12-16T22:06:26.794Z,47.57
2022-12-16T22:09:12.167Z,46.63
2022-12-16T22:11:57.534Z,47.33
2022-12-16T22:14:42.799Z,46.67
2022-12-16T22:17:28.660Z,46.93
2022-12-16T22:20:14.256Z,48.27
2022-12-16T22:23:01.015Z,47.43
2022-12-16T22:25:46.588Z,45.30
2022-12-16T22:28:32.160Z,43.97
2022-12-16T22:31:17.905Z,45.27
2022-12-16T22:34:06.736Z,45.97
2022-12-16T22:36:21.217Z,49.90
2022-12-16T22:36:52.198Z,44.40
2022-12-16T22:39:45.112Z,46.37
2022-12-16T22:42:30.895Z,47.27
2022-12-16T22:45:16.504Z,46.70
2022-12-16T22:48:16.561Z,45.50
2022-12-16T22:51:02.216Z,43.33
2022-12-16T22:53:47.696Z,43.23
2022-12-16T22:56:34.607Z,44.03
2022-12-16T22:59:19.831Z,44.63
2022-12-16T23:02:05.277Z,43.87
2022-12-16T23:04:51.210Z,43.37
2022-12-16T23:07:37.662Z,43.00
2022-12-16T23:10:24.213Z,41.67
2022-12-16T23:13:11.038Z,44.77
2022-12-16T23:15:56.733Z,42.30
2022-12-16T23:18:42.228Z,44.07
2022-12-16T23:21:33.838Z,42.23
2022-12-16T23:24:19.224Z,43.07
2022-12-16T23:27:06.949Z,43.00
2022-12-16T23:29:53.991Z,42.50
2022-12-16T23:32:42.554Z,41.30
2022-12-16T23:35:27.958Z,42.43
2022-12-16T23:38:21.326Z,41.37
2022-12-16T23:41:05.882Z,41.80
2022-12-16T23:43:51.474Z,39.67
2022-12-16T23:46:38.722Z,40.83
2022-12-16T23:49:24.357Z,39.83
2022-12-16T23:52:09.876Z,41.03
2022-12-16T23:54:55.220Z,38.87
2022-12-16T23:57:41.995Z,40.77
